Bishop Sutton, United Kingdom
Current Conditions -  °F | °C
As of 4:50 AM on Saturday 29 Nov 2014 (Local Time) from EGGD Reporting Station
Moderate Fog Moderate Fog  
Wind Chill:   Ceiling: 100
Heat Index:   Visibility: 0.62mi
Dew Point:   Wind: 10mph
Humidity: 100%   Direction: 70°ENE
Pressure: 29.71"   Gusts: NA
Location:  51.37°N, 2.55°W
Report Text: EGGD 290450Z 07009KT 1000 R09/0900 FG OVC001 08/08 Q1006
Loading
Personal Weather Stations






























Interactive Weather Map New forecast layout! Learn more

10-Day Weather Forecast

Advertisements
Track Severe Weather on mobile